sensor_id;sensor_type;location;lat;lon;timestamp;P1;durP1;ratioP1;P2;durP2;ratioP2
60700;SDS011;46541;49.894;10.886;2023-10-13T00:00:34;25.25;;;12.75;;
60700;SDS011;46541;49.894;10.886;2023-10-13T00:03:06;23.83;;;12.70;;
60700;SDS011;46541;49.894;10.886;2023-10-13T00:05:41;21.98;;;13.00;;
60700;SDS011;46541;49.894;10.886;2023-10-13T00:08:09;22.63;;;11.95;;
60700;SDS011;46541;49.894;10.886;2023-10-13T00:10:36;25.20;;;12.45;;
60700;SDS011;46541;49.894;10.886;2023-10-13T00:13:03;26.20;;;13.85;;
60700;SDS011;46541;49.894;10.886;2023-10-13T00:15:42;23.13;;;12.30;;
60700;SDS011;46541;49.894;10.886;2023-10-13T00:18:27;20.17;;;12.85;;
60700;SDS011;46541;49.894;10.886;2023-10-13T00:21:08;19.02;;;11.88;;
60700;SDS011;46541;49.894;10.886;2023-10-13T00:23:57;19.77;;;11.38;;
60700;SDS011;46541;49.894;10.886;2023-10-13T00:26:32;24.17;;;11.40;;
60700;SDS011;46541;49.894;10.886;2023-10-13T00:29:09;22.20;;;11.30;;
60700;SDS011;46541;49.894;10.886;2023-10-13T00:31:42;15.60;;;11.20;;
60700;SDS011;46541;49.894;10.886;2023-10-13T00:34:10;19.80;;;11.38;;
60700;SDS011;46541;49.894;10.886;2023-10-13T00:36:53;17.85;;;10.77;;
60700;SDS011;46541;49.894;10.886;2023-10-13T00:39:45;19.48;;;10.73;;
60700;SDS011;46541;49.894;10.886;2023-10-13T00:42:12;18.58;;;11.98;;
60700;SDS011;46541;49.894;10.886;2023-10-13T00:44:46;18.50;;;11.15;;
60700;SDS011;46541;49.894;10.886;2023-10-13T00:47:19;18.95;;;12.30;;
60700;SDS011;46541;49.894;10.886;2023-10-13T00:50:20;20.63;;;12.82;;
60700;SDS011;46541;49.894;10.886;2023-10-13T00:52:46;21.77;;;14.10;;
60700;SDS011;46541;49.894;10.886;2023-10-13T00:55:17;25.25;;;13.25;;
60700;SDS011;46541;49.894;10.886;2023-10-13T00:57:51;18.80;;;13.15;;
60700;SDS011;46541;49.894;10.886;2023-10-13T01:00:20;20.33;;;14.00;;
60700;SDS011;46541;49.894;10.886;2023-10-13T01:02:54;27.13;;;14.55;;
60700;SDS011;46541;49.894;10.886;2023-10-13T01:05:23;25.40;;;14.18;;
60700;SDS011;46541;49.894;10.886;2023-10-13T01:07:51;23.27;;;14.00;;
60700;SDS011;46541;49.894;10.886;2023-10-13T01:10:21;23.67;;;13.93;;
60700;SDS011;46541;49.894;10.886;2023-10-13T01:12:52;22.63;;;14.38;;
60700;SDS011;46541;49.894;10.886;2023-10-13T01:15:19;23.27;;;14.32;;
60700;SDS011;46541;49.894;10.886;2023-10-13T01:18:11;25.52;;;15.07;;
60700;SDS011;46541;49.894;10.886;2023-10-13T01:20:42;29.55;;;14.50;;
60700;SDS011;46541;49.894;10.886;2023-10-13T01:23:13;24.08;;;13.57;;
60700;SDS011;46541;49.894;10.886;2023-10-13T01:25:46;23.02;;;13.75;;
60700;SDS011;46541;49.894;10.886;2023-10-13T01:28:14;23.17;;;13.00;;
60700;SDS011;46541;49.894;10.886;2023-10-13T01:30:43;25.08;;;13.27;;
60700;SDS011;46541;49.894;10.886;2023-10-13T01:33:19;26.77;;;13.93;;
60700;SDS011;46541;49.894;10.886;2023-10-13T01:35:54;27.25;;;13.27;;
60700;SDS011;46541;49.894;10.886;2023-10-13T01:38:24;25.42;;;14.35;;
60700;SDS011;46541;49.894;10.886;2023-10-13T01:40:53;22.92;;;13.63;;
60700;SDS011;46541;49.894;10.886;2023-10-13T01:43:22;21.30;;;13.18;;
60700;SDS011;46541;49.894;10.886;2023-10-13T01:45:50;20.75;;;12.93;;
60700;SDS011;46541;49.894;10.886;2023-10-13T01:48:17;27.27;;;13.80;;
60700;SDS011;46541;49.894;10.886;2023-10-13T01:50:47;24.30;;;12.75;;
60700;SDS011;46541;49.894;10.886;2023-10-13T01:53:18;25.75;;;13.60;;
60700;SDS011;46541;49.894;10.886;2023-10-13T01:55:45;23.50;;;14.02;;
60700;SDS011;46541;49.894;10.886;2023-10-13T01:58:13;24.65;;;13.90;;
60700;SDS011;46541;49.894;10.886;2023-10-13T02:00:49;25.50;;;14.15;;
60700;SDS011;46541;49.894;10.886;2023-10-13T02:03:16;22.90;;;13.05;;
60700;SDS011;46541;49.894;10.886;2023-10-13T02:05:43;22.60;;;12.77;;
60700;SDS011;46541;49.894;10.886;2023-10-13T02:08:17;25.25;;;13.98;;
60700;SDS011;46541;49.894;10.886;2023-10-13T02:10:52;21.17;;;13.80;;
60700;SDS011;46541;49.894;10.886;2023-10-13T02:13:22;29.80;;;14.23;;
60700;SDS011;46541;49.894;10.886;2023-10-13T02:15:54;27.63;;;14.55;;
60700;SDS011;46541;49.894;10.886;2023-10-13T02:18:23;27.70;;;14.68;;
60700;SDS011;46541;49.894;10.886;2023-10-13T02:20:53;20.65;;;14.10;;
60700;SDS011;46541;49.894;10.886;2023-10-13T02:23:30;27.60;;;14.90;;
60700;SDS011;46541;49.894;10.886;2023-10-13T02:26:00;31.20;;;15.52;;
60700;SDS011;46541;49.894;10.886;2023-10-13T02:28:29;29.95;;;14.68;;
60700;SDS011;46541;49.894;10.886;2023-10-13T02:31:03;24.90;;;13.93;;
60700;SDS011;46541;49.894;10.886;2023-10-13T02:33:30;20.23;;;14.75;;
60700;SDS011;46541;49.894;10.886;2023-10-13T02:35:58;24.13;;;13.05;;
60700;SDS011;46541;49.894;10.886;2023-10-13T02:38:29;22.77;;;13.55;;
60700;SDS011;46541;49.894;10.886;2023-10-13T02:41:02;26.42;;;13.88;;
60700;SDS011;46541;49.894;10.886;2023-10-13T02:43:36;25.17;;;12.90;;
60700;SDS011;46541;49.894;10.886;2023-10-13T02:46:04;19.95;;;13.07;;
60700;SDS011;46541;49.894;10.886;2023-10-13T02:48:31;28.20;;;13.27;;
60700;SDS011;46541;49.894;10.886;2023-10-13T02:51:07;20.20;;;13.35;;
60700;SDS011;46541;49.894;10.886;2023-10-13T02:53:44;29.70;;;13.20;;
60700;SDS011;46541;49.894;10.886;2023-10-13T02:56:15;27.63;;;13.13;;
60700;SDS011;46541;49.894;10.886;2023-10-13T02:58:49;22.95;;;12.95;;
60700;SDS011;46541;49.894;10.886;2023-10-13T03:01:20;28.35;;;14.35;;
60700;SDS011;46541;49.894;10.886;2023-10-13T03:03:48;24.48;;;13.20;;
60700;SDS011;46541;49.894;10.886;2023-10-13T03:06:18;28.58;;;14.48;;
60700;SDS011;46541;49.894;10.886;2023-10-13T03:08:48;25.13;;;14.15;;
60700;SDS011;46541;49.894;10.886;2023-10-13T03:11:15;26.42;;;14.30;;
60700;SDS011;46541;49.894;10.886;2023-10-13T03:13:47;23.95;;;13.63;;
60700;SDS011;46541;49.894;10.886;2023-10-13T03:16:18;24.80;;;13.82;;
60700;SDS011;46541;49.894;10.886;2023-10-13T03:18:46;26.55;;;13.85;;
60700;SDS011;46541;49.894;10.886;2023-10-13T03:21:23;23.92;;;13.95;;
60700;SDS011;46541;49.894;10.886;2023-10-13T03:24:00;24.92;;;13.13;;
60700;SDS011;46541;49.894;10.886;2023-10-13T03:26:32;22.37;;;13.10;;
60700;SDS011;46541;49.894;10.886;2023-10-13T03:29:03;24.05;;;12.65;;
60700;SDS011;46541;49.894;10.886;2023-10-13T03:31:34;24.45;;;13.43;;
60700;SDS011;46541;49.894;10.886;2023-10-13T03:34:04;20.67;;;12.57;;
60700;SDS011;46541;49.894;10.886;2023-10-13T03:36:32;24.77;;;12.82;;
60700;SDS011;46541;49.894;10.886;2023-10-13T03:39:17;31.67;;;14.80;;
60700;SDS011;46541;49.894;10.886;2023-10-13T03:41:44;26.63;;;12.98;;
60700;SDS011;46541;49.894;10.886;2023-10-13T03:44:22;27.67;;;12.40;;
60700;SDS011;46541;49.894;10.886;2023-10-13T03:46:49;22.38;;;13.35;;
60700;SDS011;46541;49.894;10.886;2023-10-13T03:49:16;21.73;;;12.85;;
60700;SDS011;46541;49.894;10.886;2023-10-13T03:51:48;22.30;;;12.75;;
60700;SDS011;46541;49.894;10.886;2023-10-13T03:54:15;23.67;;;11.88;;
60700;SDS011;46541;49.894;10.886;2023-10-13T03:56:43;21.67;;;13.38;;
60700;SDS011;46541;49.894;10.886;2023-10-13T03:59:18;27.55;;;13.18;;
60700;SDS011;46541;49.894;10.886;2023-10-13T04:01:46;20.80;;;12.63;;
60700;SDS011;46541;49.894;10.886;2023-10-13T04:04:29;21.17;;;12.35;;
60700;SDS011;46541;49.894;10.886;2023-10-13T04:07:01;21.80;;;12.27;;
60700;SDS011;46541;49.894;10.886;2023-10-13T04:09:31;26.25;;;12.73;;
60700;SDS011;46541;49.894;10.886;2023-10-13T04:12:07;23.00;;;12.32;;
60700;SDS011;46541;49.894;10.886;2023-10-13T04:15:06;22.10;;;12.75;;
60700;SDS011;46541;49.894;10.886;2023-10-13T04:17:48;26.15;;;11.43;;
60700;SDS011;46541;49.894;10.886;2023-10-13T04:20:17;23.55;;;11.43;;
60700;SDS011;46541;49.894;10.886;2023-10-13T04:22:55;28.08;;;11.95;;
60700;SDS011;46541;49.894;10.886;2023-10-13T04:25:25;23.83;;;11.65;;
60700;SDS011;46541;49.894;10.886;2023-10-13T04:28:10;22.17;;;11.70;;
60700;SDS011;46541;49.894;10.886;2023-10-13T04:33:18;21.48;;;12.70;;
60700;SDS011;46541;49.894;10.886;2023-10-13T04:36:04;16.77;;;10.93;;
60700;SDS011;46541;49.894;10.886;2023-10-13T04:38:43;19.60;;;11.05;;
60700;SDS011;46541;49.894;10.886;2023-10-13T04:41:30;22.92;;;12.25;;
60700;SDS011;46541;49.894;10.886;2023-10-13T04:44:10;19.05;;;11.00;;
60700;SDS011;46541;49.894;10.886;2023-10-13T04:46:58;20.75;;;11.10;;
60700;SDS011;46541;49.894;10.886;2023-10-13T04:49:30;19.30;;;10.93;;
60700;SDS011;46541;49.894;10.886;2023-10-13T04:52:01;21.58;;;11.63;;
60700;SDS011;46541;49.894;10.886;2023-10-13T04:57:16;19.50;;;10.77;;
60700;SDS011;46541;49.894;10.886;2023-10-13T04:59:52;16.55;;;11.02;;
60700;SDS011;46541;49.894;10.886;2023-10-13T05:02:38;24.83;;;11.30;;
60700;SDS011;46541;49.894;10.886;2023-10-13T05:05:27;18.02;;;10.57;;
60700;SDS011;46541;49.894;10.886;2023-10-13T05:08:13;25.20;;;10.57;;
60700;SDS011;46541;49.894;10.886;2023-10-13T05:11:03;23.27;;;11.90;;
60700;SDS011;46541;49.894;10.886;2023-10-13T05:13:49;23.50;;;12.30;;
60700;SDS011;46541;49.894;10.886;2023-10-13T05:16:34;23.52;;;12.27;;
60700;SDS011;46541;49.894;10.886;2023-10-13T05:19:20;20.17;;;11.15;;
60700;SDS011;46541;49.894;10.886;2023-10-13T05:22:05;24.15;;;11.63;;
60700;SDS011;46541;49.894;10.886;2023-10-13T05:24:51;24.02;;;11.90;;
60700;SDS011;46541;49.894;10.886;2023-10-13T05:27:37;24.15;;;12.25;;
60700;SDS011;46541;49.894;10.886;2023-10-13T05:30:22;21.30;;;11.40;;
60700;SDS011;46541;49.894;10.886;2023-10-13T05:33:07;22.45;;;11.23;;
60700;SDS011;46541;49.894;10.886;2023-10-13T05:35:53;19.58;;;10.50;;
60700;SDS011;46541;49.894;10.886;2023-10-13T05:38:38;23.50;;;13.43;;
60700;SDS011;46541;49.894;10.886;2023-10-13T05:41:24;26.10;;;12.75;;
60700;SDS011;46541;49.894;10.886;2023-10-13T05:44:09;26.08;;;15.77;;
60700;SDS011;46541;49.894;10.886;2023-10-13T05:46:55;24.08;;;11.95;;
60700;SDS011;46541;49.894;10.886;2023-10-13T05:49:48;25.02;;;12.98;;
60700;SDS011;46541;49.894;10.886;2023-10-13T05:52:31;20.48;;;12.05;;
60700;SDS011;46541;49.894;10.886;2023-10-13T05:55:16;16.20;;;11.97;;
60700;SDS011;46541;49.894;10.886;2023-10-13T05:58:02;27.50;;;12.63;;
60700;SDS011;46541;49.894;10.886;2023-10-13T06:00:47;20.92;;;12.43;;
60700;SDS011;46541;49.894;10.886;2023-10-13T06:03:33;22.13;;;12.82;;
60700;SDS011;46541;49.894;10.886;2023-10-13T06:06:18;22.63;;;11.68;;
60700;SDS011;46541;49.894;10.886;2023-10-13T06:09:04;24.97;;;12.93;;
60700;SDS011;46541;49.894;10.886;2023-10-13T06:11:49;15.73;;;11.25;;
60700;SDS011;46541;49.894;10.886;2023-10-13T06:14:35;17.40;;;11.75;;
60700;SDS011;46541;49.894;10.886;2023-10-13T06:17:20;23.35;;;11.48;;
60700;SDS011;46541;49.894;10.886;2023-10-13T06:20:06;24.35;;;11.95;;
60700;SDS011;46541;49.894;10.886;2023-10-13T06:22:52;28.40;;;13.75;;
60700;SDS011;46541;49.894;10.886;2023-10-13T06:25:37;25.30;;;12.05;;
60700;SDS011;46541;49.894;10.886;2023-10-13T06:28:23;27.13;;;12.13;;
60700;SDS011;46541;49.894;10.886;2023-10-13T06:31:09;29.20;;;13.15;;
60700;SDS011;46541;49.894;10.886;2023-10-13T06:33:50;18.73;;;11.57;;
60700;SDS011;46541;49.894;10.886;2023-10-13T06:36:17;23.70;;;12.77;;
60700;SDS011;46541;49.894;10.886;2023-10-13T06:38:44;21.38;;;11.55;;
60700;SDS011;46541;49.894;10.886;2023-10-13T06:41:11;24.55;;;12.57;;
60700;SDS011;46541;49.894;10.886;2023-10-13T06:43:46;21.00;;;10.80;;
60700;SDS011;46541;49.894;10.886;2023-10-13T06:46:26;19.52;;;11.07;;
60700;SDS011;46541;49.894;10.886;2023-10-13T06:48:55;16.30;;;10.90;;
60700;SDS011;46541;49.894;10.886;2023-10-13T06:51:21;18.95;;;11.27;;
60700;SDS011;46541;49.894;10.886;2023-10-13T06:53:48;20.85;;;11.27;;
60700;SDS011;46541;49.894;10.886;2023-10-13T06:56:17;23.73;;;11.63;;
60700;SDS011;46541;49.894;10.886;2023-10-13T06:58:54;21.95;;;11.65;;
60700;SDS011;46541;49.894;10.886;2023-10-13T07:01:31;18.13;;;10.95;;
60700;SDS011;46541;49.894;10.886;2023-10-13T07:04:09;18.92;;;10.63;;
60700;SDS011;46541;49.894;10.886;2023-10-13T07:06:43;22.92;;;10.95;;
60700;SDS011;46541;49.894;10.886;2023-10-13T07:09:16;22.25;;;10.77;;
60700;SDS011;46541;49.894;10.886;2023-10-13T07:12:04;16.08;;;10.02;;
60700;SDS011;46541;49.894;10.886;2023-10-13T07:14:49;20.90;;;9.68;;
60700;SDS011;46541;49.894;10.886;2023-10-13T07:17:18;23.02;;;10.27;;
60700;SDS011;46541;49.894;10.886;2023-10-13T07:19:52;19.40;;;10.23;;
60700;SDS011;46541;49.894;10.886;2023-10-13T07:22:21;25.35;;;10.13;;
60700;SDS011;46541;49.894;10.886;2023-10-13T07:24:50;17.42;;;9.85;;
60700;SDS011;46541;49.894;10.886;2023-10-13T07:27:17;22.75;;;9.65;;
60700;SDS011;46541;49.894;10.886;2023-10-13T07:29:51;18.83;;;10.25;;
60700;SDS011;46541;49.894;10.886;2023-10-13T07:32:39;22.23;;;9.50;;
60700;SDS011;46541;49.894;10.886;2023-10-13T07:35:17;20.20;;;10.38;;
60700;SDS011;46541;49.894;10.886;2023-10-13T07:37:50;17.10;;;8.93;;
60700;SDS011;46541;49.894;10.886;2023-10-13T07:40:19;18.63;;;8.60;;
60700;SDS011;46541;49.894;10.886;2023-10-13T07:42:53;19.92;;;9.85;;
60700;SDS011;46541;49.894;10.886;2023-10-13T07:45:36;23.17;;;9.68;;
60700;SDS011;46541;49.894;10.886;2023-10-13T07:48:08;14.40;;;9.35;;
60700;SDS011;46541;49.894;10.886;2023-10-13T07:51:04;15.05;;;8.40;;
60700;SDS011;46541;49.894;10.886;2023-10-13T07:53:41;16.20;;;9.50;;
60700;SDS011;46541;49.894;10.886;2023-10-13T07:56:17;18.33;;;8.43;;
60700;SDS011;46541;49.894;10.886;2023-10-13T07:58:45;17.80;;;8.45;;
60700;SDS011;46541;49.894;10.886;2023-10-13T08:01:30;14.18;;;7.95;;
60700;SDS011;46541;49.894;10.886;2023-10-13T08:03:58;16.30;;;8.45;;
60700;SDS011;46541;49.894;10.886;2023-10-13T08:06:38;23.90;;;11.73;;
60700;SDS011;46541;49.894;10.886;2023-10-13T08:09:07;23.15;;;10.05;;
60700;SDS011;46541;49.894;10.886;2023-10-13T08:11:35;18.95;;;8.80;;
60700;SDS011;46541;49.894;10.886;2023-10-13T08:14:04;20.52;;;8.90;;
60700;SDS011;46541;49.894;10.886;2023-10-13T08:16:56;22.67;;;8.75;;
60700;SDS011;46541;49.894;10.886;2023-10-13T08:19:34;18.73;;;8.02;;
60700;SDS011;46541;49.894;10.886;2023-10-13T08:22:14;19.25;;;8.40;;
60700;SDS011;46541;49.894;10.886;2023-10-13T08:24:44;28.67;;;8.90;;
60700;SDS011;46541;49.894;10.886;2023-10-13T08:27:11;19.58;;;8.75;;
60700;SDS011;46541;49.894;10.886;2023-10-13T08:32:25;16.65;;;9.15;;
60700;SDS011;46541;49.894;10.886;2023-10-13T08:34:56;22.98;;;12.20;;
60700;SDS011;46541;49.894;10.886;2023-10-13T08:37:30;32.20;;;13.20;;
60700;SDS011;46541;49.894;10.886;2023-10-13T08:43:01;19.33;;;8.10;;
60700;SDS011;46541;49.894;10.886;2023-10-13T08:45:31;18.05;;;8.40;;
60700;SDS011;46541;49.894;10.886;2023-10-13T08:48:02;16.38;;;7.80;;
60700;SDS011;46541;49.894;10.886;2023-10-13T08:50:43;21.38;;;8.88;;
60700;SDS011;46541;49.894;10.886;2023-10-13T08:53:18;20.95;;;8.00;;
60700;SDS011;46541;49.894;10.886;2023-10-13T08:58:49;12.70;;;7.70;;
60700;SDS011;46541;49.894;10.886;2023-10-13T09:06:59;20.63;;;8.90;;
60700;SDS011;46541;49.894;10.886;2023-10-13T09:12:20;12.02;;;6.10;;
60700;SDS011;46541;49.894;10.886;2023-10-13T09:15:01;10.98;;;5.95;;
60700;SDS011;46541;49.894;10.886;2023-10-13T09:20:39;15.80;;;6.55;;
60700;SDS011;46541;49.894;10.886;2023-10-13T09:23:09;13.35;;;5.45;;
60700;SDS011;46541;49.894;10.886;2023-10-13T09:25:40;18.45;;;6.40;;
60700;SDS011;46541;49.894;10.886;2023-10-13T09:28:27;13.52;;;6.47;;
60700;SDS011;46541;49.894;10.886;2023-10-13T09:30:55;14.85;;;6.13;;
60700;SDS011;46541;49.894;10.886;2023-10-13T09:33:26;10.48;;;5.20;;
60700;SDS011;46541;49.894;10.886;2023-10-13T09:38:34;17.05;;;5.68;;
60700;SDS011;46541;49.894;10.886;2023-10-13T09:41:28;15.05;;;6.25;;
60700;SDS011;46541;49.894;10.886;2023-10-13T09:43:58;12.15;;;7.05;;
60700;SDS011;46541;49.894;10.886;2023-10-13T09:46:26;11.70;;;7.40;;
60700;SDS011;46541;49.894;10.886;2023-10-13T09:48:57;19.02;;;8.02;;
60700;SDS011;46541;49.894;10.886;2023-10-13T09:51:34;19.92;;;6.55;;
60700;SDS011;46541;49.894;10.886;2023-10-13T09:54:03;14.18;;;6.22;;
60700;SDS011;46541;49.894;10.886;2023-10-13T09:57:07;12.57;;;5.88;;
60700;SDS011;46541;49.894;10.886;2023-10-13T09:59:50;19.80;;;7.65;;
60700;SDS011;46541;49.894;10.886;2023-10-13T10:02:22;13.98;;;7.63;;
60700;SDS011;46541;49.894;10.886;2023-10-13T10:04:56;19.52;;;8.60;;
60700;SDS011;46541;49.894;10.886;2023-10-13T10:07:39;15.60;;;7.47;;
60700;SDS011;46541;49.894;10.886;2023-10-13T10:10:06;11.70;;;6.20;;
60700;SDS011;46541;49.894;10.886;2023-10-13T10:18:01;12.75;;;5.68;;
60700;SDS011;46541;49.894;10.886;2023-10-13T10:20:29;16.00;;;7.82;;
60700;SDS011;46541;49.894;10.886;2023-10-13T10:22:59;10.82;;;6.80;;
60700;SDS011;46541;49.894;10.886;2023-10-13T10:25:30;12.32;;;6.35;;
60700;SDS011;46541;49.894;10.886;2023-10-13T10:28:02;14.70;;;6.55;;
60700;SDS011;46541;49.894;10.886;2023-10-13T10:30:35;12.30;;;5.03;;
60700;SDS011;46541;49.894;10.886;2023-10-13T10:33:05;14.35;;;5.20;;
60700;SDS011;46541;49.894;10.886;2023-10-13T10:35:57;12.57;;;5.90;;
60700;SDS011;46541;49.894;10.886;2023-10-13T10:38:25;11.80;;;5.50;;
60700;SDS011;46541;49.894;10.886;2023-10-13T10:41:02;9.00;;;4.57;;
60700;SDS011;46541;49.894;10.886;2023-10-13T10:46:25;28.80;;;15.65;;
60700;SDS011;46541;49.894;10.886;2023-10-13T10:48:57;23.60;;;12.48;;
60700;SDS011;46541;49.894;10.886;2023-10-13T10:51:27;27.00;;;9.32;;
60700;SDS011;46541;49.894;10.886;2023-10-13T10:53:58;9.20;;;5.57;;
60700;SDS011;46541;49.894;10.886;2023-10-13T10:56:37;17.35;;;7.43;;
60700;SDS011;46541;49.894;10.886;2023-10-13T10:59:05;14.48;;;7.00;;
60700;SDS011;46541;49.894;10.886;2023-10-13T11:01:44;11.82;;;6.10;;
60700;SDS011;46541;49.894;10.886;2023-10-13T11:04:17;14.88;;;7.30;;
60700;SDS011;46541;49.894;10.886;2023-10-13T11:06:49;20.70;;;8.95;;
60700;SDS011;46541;49.894;10.886;2023-10-13T11:09:27;14.60;;;8.23;;
60700;SDS011;46541;49.894;10.886;2023-10-13T11:14:42;13.68;;;6.50;;
60700;SDS011;46541;49.894;10.886;2023-10-13T11:17:21;12.55;;;5.13;;
60700;SDS011;46541;49.894;10.886;2023-10-13T11:20:10;9.55;;;5.47;;
60700;SDS011;46541;49.894;10.886;2023-10-13T11:22:52;15.38;;;5.10;;
60700;SDS011;46541;49.894;10.886;2023-10-13T11:25:37;11.02;;;5.15;;
60700;SDS011;46541;49.894;10.886;2023-10-13T11:28:14;13.57;;;6.20;;
60700;SDS011;46541;49.894;10.886;2023-10-13T11:30:57;15.00;;;6.63;;
60700;SDS011;46541;49.894;10.886;2023-10-13T11:33:42;10.70;;;6.78;;
60700;SDS011;46541;49.894;10.886;2023-10-13T11:36:12;13.57;;;5.93;;
60700;SDS011;46541;49.894;10.886;2023-10-13T11:38:43;26.63;;;7.30;;
60700;SDS011;46541;49.894;10.886;2023-10-13T11:41:16;10.80;;;5.78;;
60700;SDS011;46541;49.894;10.886;2023-10-13T11:43:50;23.10;;;9.55;;
60700;SDS011;46541;49.894;10.886;2023-10-13T11:49:02;15.25;;;7.00;;
60700;SDS011;46541;49.894;10.886;2023-10-13T11:51:47;24.55;;;11.80;;
60700;SDS011;46541;49.894;10.886;2023-10-13T11:54:15;12.05;;;5.13;;
60700;SDS011;46541;49.894;10.886;2023-10-13T11:56:48;14.50;;;5.20;;
60700;SDS011;46541;49.894;10.886;2023-10-13T11:59:16;10.90;;;4.85;;
60700;SDS011;46541;49.894;10.886;2023-10-13T12:04:30;12.82;;;4.80;;
60700;SDS011;46541;49.894;10.886;2023-10-13T12:06:59;22.08;;;7.60;;
60700;SDS011;46541;49.894;10.886;2023-10-13T12:09:46;15.10;;;6.38;;
60700;SDS011;46541;49.894;10.886;2023-10-13T12:12:24;18.53;;;9.27;;
60700;SDS011;46541;49.894;10.886;2023-10-13T12:14:52;11.07;;;5.15;;
60700;SDS011;46541;49.894;10.886;2023-10-13T12:20:03;12.23;;;5.80;;
60700;SDS011;46541;49.894;10.886;2023-10-13T12:22:32;17.60;;;8.30;;
60700;SDS011;46541;49.894;10.886;2023-10-13T12:25:05;15.45;;;6.55;;
60700;SDS011;46541;49.894;10.886;2023-10-13T12:27:52;16.02;;;5.50;;
60700;SDS011;46541;49.894;10.886;2023-10-13T12:30:23;12.13;;;6.00;;
60700;SDS011;46541;49.894;10.886;2023-10-13T12:33:15;12.60;;;5.03;;
60700;SDS011;46541;49.894;10.886;2023-10-13T12:35:55;12.65;;;5.72;;
60700;SDS011;46541;49.894;10.886;2023-10-13T12:38:40;12.00;;;6.28;;
60700;SDS011;46541;49.894;10.886;2023-10-13T12:41:13;15.80;;;6.00;;
60700;SDS011;46541;49.894;10.886;2023-10-13T12:44:02;16.92;;;6.85;;
60700;SDS011;46541;49.894;10.886;2023-10-13T12:46:49;18.48;;;7.13;;
60700;SDS011;46541;49.894;10.886;2023-10-13T12:49:34;19.13;;;7.00;;
60700;SDS011;46541;49.894;10.886;2023-10-13T12:52:15;12.55;;;4.18;;
60700;SDS011;46541;49.894;10.886;2023-10-13T12:54:42;17.50;;;4.35;;
60700;SDS011;46541;49.894;10.886;2023-10-13T12:57:35;11.40;;;4.38;;
60700;SDS011;46541;49.894;10.886;2023-10-13T13:00:10;10.57;;;5.43;;
60700;SDS011;46541;49.894;10.886;2023-10-13T13:02:47;12.43;;;4.00;;
60700;SDS011;46541;49.894;10.886;2023-10-13T13:05:17;11.02;;;4.50;;
60700;SDS011;46541;49.894;10.886;2023-10-13T13:07:49;12.30;;;6.30;;
60700;SDS011;46541;49.894;10.886;2023-10-13T13:10:19;11.55;;;5.50;;
60700;SDS011;46541;49.894;10.886;2023-10-13T13:15:21;22.58;;;12.23;;
60700;SDS011;46541;49.894;10.886;2023-10-13T13:17:49;13.77;;;5.90;;
60700;SDS011;46541;49.894;10.886;2023-10-13T13:20:17;8.55;;;4.32;;
60700;SDS011;46541;49.894;10.886;2023-10-13T13:22:54;9.48;;;4.80;;
60700;SDS011;46541;49.894;10.886;2023-10-13T13:25:21;8.30;;;3.88;;
60700;SDS011;46541;49.894;10.886;2023-10-13T13:27:52;10.77;;;4.55;;
60700;SDS011;46541;49.894;10.886;2023-10-13T13:30:19;9.75;;;4.93;;
60700;SDS011;46541;49.894;10.886;2023-10-13T13:32:47;12.95;;;3.80;;
60700;SDS011;46541;49.894;10.886;2023-10-13T13:35:14;8.23;;;4.63;;
60700;SDS011;46541;49.894;10.886;2023-10-13T13:37:44;9.75;;;4.25;;
60700;SDS011;46541;49.894;10.886;2023-10-13T13:40:11;8.15;;;4.32;;
60700;SDS011;46541;49.894;10.886;2023-10-13T13:42:42;8.98;;;4.63;;
60700;SDS011;46541;49.894;10.886;2023-10-13T13:45:16;9.25;;;4.80;;
60700;SDS011;46541;49.894;10.886;2023-10-13T13:47:54;15.38;;;4.57;;
60700;SDS011;46541;49.894;10.886;2023-10-13T13:50:24;8.95;;;3.83;;
60700;SDS011;46541;49.894;10.886;2023-10-13T13:52:58;12.05;;;4.60;;
60700;SDS011;46541;49.894;10.886;2023-10-13T13:55:33;12.63;;;4.43;;
60700;SDS011;46541;49.894;10.886;2023-10-13T13:58:00;7.45;;;3.97;;
60700;SDS011;46541;49.894;10.886;2023-10-13T14:00:27;10.93;;;4.95;;
60700;SDS011;46541;49.894;10.886;2023-10-13T14:03:14;7.75;;;4.28;;
60700;SDS011;46541;49.894;10.886;2023-10-13T14:06:14;12.60;;;4.47;;
60700;SDS011;46541;49.894;10.886;2023-10-13T14:08:47;11.55;;;4.47;;
60700;SDS011;46541;49.894;10.886;2023-10-13T14:11:17;8.40;;;3.90;;
60700;SDS011;46541;49.894;10.886;2023-10-13T14:14:02;7.77;;;3.87;;
60700;SDS011;46541;49.894;10.886;2023-10-13T14:16:40;8.57;;;3.78;;
60700;SDS011;46541;49.894;10.886;2023-10-13T14:19:11;11.07;;;4.78;;
60700;SDS011;46541;49.894;10.886;2023-10-13T14:21:38;12.02;;;4.47;;
60700;SDS011;46541;49.894;10.886;2023-10-13T14:24:05;10.70;;;5.22;;
60700;SDS011;46541;49.894;10.886;2023-10-13T14:26:42;15.40;;;4.90;;
60700;SDS011;46541;49.894;10.886;2023-10-13T14:29:10;9.93;;;5.32;;
60700;SDS011;46541;49.894;10.886;2023-10-13T14:31:40;12.18;;;5.28;;
60700;SDS011;46541;49.894;10.886;2023-10-13T14:34:07;15.48;;;5.10;;
60700;SDS011;46541;49.894;10.886;2023-10-13T14:36:35;13.00;;;5.55;;
60700;SDS011;46541;49.894;10.886;2023-10-13T14:39:02;14.45;;;5.45;;
60700;SDS011;46541;49.894;10.886;2023-10-13T14:41:38;12.70;;;5.18;;
60700;SDS011;46541;49.894;10.886;2023-10-13T14:44:05;12.75;;;6.47;;
60700;SDS011;46541;49.894;10.886;2023-10-13T14:46:33;13.10;;;7.13;;
60700;SDS011;46541;49.894;10.886;2023-10-13T14:49:06;15.10;;;7.50;;
60700;SDS011;46541;49.894;10.886;2023-10-13T14:51:32;15.00;;;7.80;;
60700;SDS011;46541;49.894;10.886;2023-10-13T14:53:59;22.08;;;12.43;;
60700;SDS011;46541;49.894;10.886;2023-10-13T14:56:26;35.58;;;19.63;;
60700;SDS011;46541;49.894;10.886;2023-10-13T14:58:54;21.08;;;10.18;;
60700;SDS011;46541;49.894;10.886;2023-10-13T15:01:21;25.55;;;13.85;;
60700;SDS011;46541;49.894;10.886;2023-10-13T15:03:51;18.25;;;10.25;;
60700;SDS011;46541;49.894;10.886;2023-10-13T15:06:25;16.77;;;8.18;;
60700;SDS011;46541;49.894;10.886;2023-10-13T15:08:56;17.02;;;8.60;;
60700;SDS011;46541;49.894;10.886;2023-10-13T15:11:25;18.73;;;9.32;;
60700;SDS011;46541;49.894;10.886;2023-10-13T15:14:15;13.85;;;6.00;;
60700;SDS011;46541;49.894;10.886;2023-10-13T15:16:42;23.00;;;11.43;;
60700;SDS011;46541;49.894;10.886;2023-10-13T15:19:09;16.35;;;7.95;;
60700;SDS011;46541;49.894;10.886;2023-10-13T15:21:36;18.38;;;8.45;;
60700;SDS011;46541;49.894;10.886;2023-10-13T15:24:06;22.00;;;11.13;;
60700;SDS011;46541;49.894;10.886;2023-10-13T15:26:52;32.22;;;15.88;;
60700;SDS011;46541;49.894;10.886;2023-10-13T15:29:28;22.55;;;10.25;;
60700;SDS011;46541;49.894;10.886;2023-10-13T15:32:03;22.33;;;13.25;;
60700;SDS011;46541;49.894;10.886;2023-10-13T15:34:31;27.15;;;14.52;;
60700;SDS011;46541;49.894;10.886;2023-10-13T15:36:59;24.15;;;12.98;;
60700;SDS011;46541;49.894;10.886;2023-10-13T15:39:26;20.35;;;10.73;;
60700;SDS011;46541;49.894;10.886;2023-10-13T15:41:55;20.63;;;11.02;;
60700;SDS011;46541;49.894;10.886;2023-10-13T15:44:25;22.02;;;8.77;;
60700;SDS011;46541;49.894;10.886;2023-10-13T15:46:56;14.48;;;5.93;;
60700;SDS011;46541;49.894;10.886;2023-10-13T15:49:30;13.60;;;8.20;;